sensor_id;sensor_type;location;lat;lon;timestamp;pressure;altitude;pressure_sealevel;temperature;humidity
61537;BME280;48695;53.480;-6.300;2023-05-19T00:01:19;102286.25;;;17.59;47.44
61537;BME280;48695;53.480;-6.300;2023-05-19T00:03:54;102290.63;;;17.60;46.39
61537;BME280;48695;53.480;-6.300;2023-05-19T00:06:22;102257.72;;;17.40;47.15
61537;BME280;48695;53.480;-6.300;2023-05-19T00:08:49;102303.84;;;17.60;47.16
61537;BME280;48695;53.480;-6.300;2023-05-19T00:11:15;102299.41;;;17.61;47.57
61537;BME280;48695;53.480;-6.300;2023-05-19T00:13:40;102302.97;;;17.60;47.40
61537;BME280;48695;53.480;-6.300;2023-05-19T00:16:05;102304.69;;;17.61;47.87
61537;BME280;48695;53.480;-6.300;2023-05-19T00:18:31;102303.84;;;17.60;47.54
61537;BME280;48695;53.480;-6.300;2023-05-19T00:20:57;102299.41;;;17.61;47.93
61537;BME280;48695;53.480;-6.300;2023-05-19T00:23:22;102299.41;;;17.61;47.96
61537;BME280;48695;53.480;-6.300;2023-05-19T00:25:47;102299.41;;;17.61;47.54
61537;BME280;48695;53.480;-6.300;2023-05-19T00:28:13;102309.94;;;17.62;47.61
61537;BME280;48695;53.480;-6.300;2023-05-19T00:30:38;102319.59;;;17.63;47.50
61537;BME280;48695;53.480;-6.300;2023-05-19T00:33:03;102324.88;;;17.63;47.58
61537;BME280;48695;53.480;-6.300;2023-05-19T00:35:28;102324.88;;;17.63;47.97
61537;BME280;48695;53.480;-6.300;2023-05-19T00:37:54;102330.13;;;17.65;47.83
61537;BME280;48695;53.480;-6.300;2023-05-19T00:40:19;102330.16;;;17.63;47.50
61537;BME280;48695;53.480;-6.300;2023-05-19T00:42:45;102334.56;;;17.63;47.68
61537;BME280;48695;53.480;-6.300;2023-05-19T00:45:10;102327.56;;;17.62;47.23
61537;BME280;48695;53.480;-6.300;2023-05-19T00:47:35;102326.75;;;17.58;46.93
61537;BME280;48695;53.480;-6.300;2023-05-19T00:50:00;102324.16;;;17.57;47.36
61537;BME280;48695;53.480;-6.300;2023-05-19T00:52:26;102333.94;;;17.53;47.39
61537;BME280;48695;53.480;-6.300;2023-05-19T00:54:51;102328.75;;;17.50;47.39
61537;BME280;48695;53.480;-6.300;2023-05-19T00:57:17;102334.09;;;17.49;47.81
61537;BME280;48695;53.480;-6.300;2023-05-19T00:59:43;102342.06;;;17.46;47.99
61537;BME280;48695;53.480;-6.300;2023-05-19T01:02:08;102337.72;;;17.43;47.50
61537;BME280;48695;53.480;-6.300;2023-05-19T01:04:33;102340.41;;;17.42;47.85
61537;BME280;48695;53.480;-6.300;2023-05-19T01:07:00;102341.38;;;17.39;47.75
61537;BME280;48695;53.480;-6.300;2023-05-19T01:09:25;102347.59;;;17.36;47.04
61537;BME280;48695;53.480;-6.300;2023-05-19T01:11:50;102338.84;;;17.33;47.50
61537;BME280;48695;53.480;-6.300;2023-05-19T01:14:16;102346.00;;;17.29;47.91
61537;BME280;48695;53.480;-6.300;2023-05-19T01:16:44;102342.53;;;17.27;48.08
61537;BME280;48695;53.480;-6.300;2023-05-19T01:22:05;102339.13;;;17.22;48.02
61537;BME280;48695;53.480;-6.300;2023-05-19T01:32:30;102316.44;;;17.15;48.34
61537;BME280;48695;53.480;-6.300;2023-05-19T01:34:57;102319.97;;;17.14;48.49
61537;BME280;48695;53.480;-6.300;2023-05-19T01:37:22;102327.06;;;17.12;48.31
61537;BME280;48695;53.480;-6.300;2023-05-19T01:39:48;102323.59;;;17.10;48.08
61537;BME280;48695;53.480;-6.300;2023-05-19T01:42:14;102328.03;;;17.08;47.98
61537;BME280;48695;53.480;-6.300;2023-05-19T01:44:41;102329.84;;;17.06;48.02
61537;BME280;48695;53.480;-6.300;2023-05-19T01:47:06;102321.13;;;17.02;47.99
61537;BME280;48695;53.480;-6.300;2023-05-19T01:49:32;102330.84;;;17.00;48.21
61537;BME280;48695;53.480;-6.300;2023-05-19T01:51:57;102323.03;;;16.96;47.65
61537;BME280;48695;53.480;-6.300;2023-05-19T01:54:22;102324.00;;;16.92;47.67
61537;BME280;48695;53.480;-6.300;2023-05-19T01:56:59;102327.63;;;16.88;47.90
61537;BME280;48695;53.480;-6.300;2023-05-19T02:02:09;102329.63;;;16.78;47.96
61537;BME280;48695;53.480;-6.300;2023-05-19T02:07:08;102320.13;;;16.69;47.99
61537;BME280;48695;53.480;-6.300;2023-05-19T02:09:56;102328.16;;;16.63;47.86
61537;BME280;48695;53.480;-6.300;2023-05-19T02:14:53;102333.63;;;16.54;47.52
61537;BME280;48695;53.480;-6.300;2023-05-19T02:17:20;102339.03;;;16.48;47.56
61537;BME280;48695;53.480;-6.300;2023-05-19T02:19:47;102332.09;;;16.42;47.58
61537;BME280;48695;53.480;-6.300;2023-05-19T02:22:12;102337.50;;;16.38;47.74
61537;BME280;48695;53.480;-6.300;2023-05-19T02:24:37;102344.63;;;16.32;48.13
61537;BME280;48695;53.480;-6.300;2023-05-19T02:27:03;102330.66;;;16.29;47.80
61537;BME280;48695;53.480;-6.300;2023-05-19T02:29:28;102329.88;;;16.24;48.14
61537;BME280;48695;53.480;-6.300;2023-05-19T02:31:54;102339.59;;;16.20;48.51
61537;BME280;48695;53.480;-6.300;2023-05-19T02:34:19;102330.88;;;16.18;48.37
61537;BME280;48695;53.480;-6.300;2023-05-19T02:36:45;102340.63;;;16.13;48.37
61537;BME280;48695;53.480;-6.300;2023-05-19T02:39:13;102339.84;;;16.08;48.19
61537;BME280;48695;53.480;-6.300;2023-05-19T02:41:39;102345.25;;;16.02;48.60
61537;BME280;48695;53.480;-6.300;2023-05-19T02:44:04;102344.47;;;15.97;48.38
61537;BME280;48695;53.480;-6.300;2023-05-19T02:46:29;102348.97;;;15.90;48.45
61537;BME280;48695;53.480;-6.300;2023-05-19T02:48:55;102343.81;;;15.84;48.28
61537;BME280;48695;53.480;-6.300;2023-05-19T02:51:20;102345.69;;;15.77;48.44
61537;BME280;48695;53.480;-6.300;2023-05-19T02:53:45;102346.69;;;15.70;48.59
61537;BME280;48695;53.480;-6.300;2023-05-19T02:56:10;102347.69;;;15.63;48.68
61537;BME280;48695;53.480;-6.300;2023-05-19T02:58:36;102344.25;;;15.58;48.59
61537;BME280;48695;53.480;-6.300;2023-05-19T03:01:02;102339.97;;;15.51;48.48
61537;BME280;48695;53.480;-6.300;2023-05-19T03:03:27;102339.16;;;15.46;48.52
61537;BME280;48695;53.480;-6.300;2023-05-19T03:05:52;102346.28;;;15.41;48.79
61537;BME280;48695;53.480;-6.300;2023-05-19T03:08:18;102347.28;;;15.34;48.71
61537;BME280;48695;53.480;-6.300;2023-05-19T03:10:44;102353.47;;;15.29;48.90
61537;BME280;48695;53.480;-6.300;2023-05-19T03:13:09;102357.94;;;15.24;48.81
61537;BME280;48695;53.480;-6.300;2023-05-19T03:15:35;102354.50;;;15.21;49.25
61537;BME280;48695;53.480;-6.300;2023-05-19T03:18:00;102357.22;;;15.16;49.26
61537;BME280;48695;53.480;-6.300;2023-05-19T03:20:26;102353.78;;;15.11;48.87
61537;BME280;48695;53.480;-6.300;2023-05-19T03:22:51;102355.59;;;15.08;49.31
61537;BME280;48695;53.480;-6.300;2023-05-19T03:25:16;102352.19;;;15.01;49.38
61537;BME280;48695;53.480;-6.300;2023-05-19T03:27:41;102300.09;;;14.64;49.04
61537;BME280;48695;53.480;-6.300;2023-05-19T03:30:07;102350.53;;;14.94;48.96
61537;BME280;48695;53.480;-6.300;2023-05-19T03:32:33;102308.09;;;14.57;49.23
61537;BME280;48695;53.480;-6.300;2023-05-19T03:35:01;102368.19;;;14.86;49.46
61537;BME280;48695;53.480;-6.300;2023-05-19T03:37:26;102363.00;;;14.81;49.14
61537;BME280;48695;53.480;-6.300;2023-05-19T03:39:51;102365.66;;;14.78;49.05
61537;BME280;48695;53.480;-6.300;2023-05-19T03:42:17;102349.03;;;14.74;49.03
61537;BME280;48695;53.480;-6.300;2023-05-19T03:44:42;102351.72;;;14.70;49.53
61537;BME280;48695;53.480;-6.300;2023-05-19T03:47:08;102360.56;;;14.66;49.46
61537;BME280;48695;53.480;-6.300;2023-05-19T03:49:33;102372.84;;;14.64;49.39
61537;BME280;48695;53.480;-6.300;2023-05-19T03:51:59;102361.53;;;14.60;49.33
61537;BME280;48695;53.480;-6.300;2023-05-19T03:54:27;102369.47;;;14.56;49.48
61537;BME280;48695;53.480;-6.300;2023-05-19T03:56:52;102375.59;;;14.53;49.60
61537;BME280;48695;53.480;-6.300;2023-05-19T03:59:18;102374.78;;;14.51;49.63
61537;BME280;48695;53.480;-6.300;2023-05-19T04:01:43;102375.66;;;14.47;49.71
61537;BME280;48695;53.480;-6.300;2023-05-19T04:04:08;102372.19;;;14.43;49.40
61537;BME280;48695;53.480;-6.300;2023-05-19T04:06:33;102380.13;;;14.40;49.39
61537;BME280;48695;53.480;-6.300;2023-05-19T04:09:00;102379.28;;;14.37;49.82
61537;BME280;48695;53.480;-6.300;2023-05-19T04:11:26;102395.06;;;14.34;49.74
61537;BME280;48695;53.480;-6.300;2023-05-19T04:13:51;102332.44;;;13.97;49.51
61537;BME280;48695;53.480;-6.300;2023-05-19T04:16:16;102389.91;;;14.27;49.84
61537;BME280;48695;53.480;-6.300;2023-05-19T04:18:41;102400.47;;;14.24;49.70
61537;BME280;48695;53.480;-6.300;2023-05-19T04:21:09;102396.97;;;14.21;49.49
61537;BME280;48695;53.480;-6.300;2023-05-19T04:23:34;102403.13;;;14.18;49.84
61537;BME280;48695;53.480;-6.300;2023-05-19T04:26:00;102402.28;;;14.16;49.82
61537;BME280;48695;53.480;-6.300;2023-05-19T04:28:26;102406.69;;;14.14;50.00
61537;BME280;48695;53.480;-6.300;2023-05-19T04:30:51;102409.34;;;14.11;49.82
61537;BME280;48695;53.480;-6.300;2023-05-19T04:33:17;102418.09;;;14.09;49.91
61537;BME280;48695;53.480;-6.300;2023-05-19T04:35:44;102411.16;;;14.06;50.01
61537;BME280;48695;53.480;-6.300;2023-05-19T04:38:09;102410.31;;;14.04;50.04
61537;BME280;48695;53.480;-6.300;2023-05-19T04:40:36;102418.19;;;14.01;49.61
61537;BME280;48695;53.480;-6.300;2023-05-19T04:43:01;102421.72;;;13.98;49.68
61537;BME280;48695;53.480;-6.300;2023-05-19T04:45:26;102428.72;;;13.98;50.16
61537;BME280;48695;53.480;-6.300;2023-05-19T04:47:52;102427.00;;;13.97;50.22
61537;BME280;48695;53.480;-6.300;2023-05-19T04:50:22;102434.88;;;13.95;49.88
61537;BME280;48695;53.480;-6.300;2023-05-19T04:52:47;102425.25;;;13.93;49.73
61537;BME280;48695;53.480;-6.300;2023-05-19T04:55:12;102415.63;;;13.93;49.92
61537;BME280;48695;53.480;-6.300;2023-05-19T04:57:37;102419.16;;;13.92;50.01
61537;BME280;48695;53.480;-6.300;2023-05-19T05:00:03;102426.19;;;13.90;49.06
61537;BME280;48695;53.480;-6.300;2023-05-19T05:02:32;102364.38;;;13.54;49.76
61537;BME280;48695;53.480;-6.300;2023-05-19T05:04:57;102427.94;;;13.88;49.91
61537;BME280;48695;53.480;-6.300;2023-05-19T05:07:23;102430.56;;;13.87;50.00
61537;BME280;48695;53.480;-6.300;2023-05-19T05:09:48;102428.84;;;13.86;49.68
61537;BME280;48695;53.480;-6.300;2023-05-19T05:12:14;102423.59;;;13.86;50.07
61537;BME280;48695;53.480;-6.300;2023-05-19T05:14:40;102421.84;;;13.85;49.94
61537;BME280;48695;53.480;-6.300;2023-05-19T05:17:05;102423.63;;;13.84;49.47
61537;BME280;48695;53.480;-6.300;2023-05-19T05:19:32;102434.09;;;13.83;49.73
61537;BME280;48695;53.480;-6.300;2023-05-19T05:21:57;102438.50;;;13.82;49.58
61537;BME280;48695;53.480;-6.300;2023-05-19T05:24:22;102428.91;;;13.80;49.74
61537;BME280;48695;53.480;-6.300;2023-05-19T05:26:48;102421.88;;;13.79;49.70
61537;BME280;48695;53.480;-6.300;2023-05-19T05:29:13;102417.53;;;13.79;49.71
61537;BME280;48695;53.480;-6.300;2023-05-19T05:31:38;102414.00;;;13.79;49.97
61537;BME280;48695;53.480;-6.300;2023-05-19T05:34:04;102430.66;;;13.79;50.02
61537;BME280;48695;53.480;-6.300;2023-05-19T05:36:29;102432.41;;;13.80;49.06
61537;BME280;48695;53.480;-6.300;2023-05-19T05:38:55;102426.28;;;13.80;49.80
61537;BME280;48695;53.480;-6.300;2023-05-19T05:41:20;102431.53;;;13.80;50.10
61537;BME280;48695;53.480;-6.300;2023-05-19T05:43:46;102427.16;;;13.80;49.99
61537;BME280;48695;53.480;-6.300;2023-05-19T05:46:11;102432.38;;;13.82;50.28
61537;BME280;48695;53.480;-6.300;2023-05-19T05:48:36;102435.00;;;13.82;50.23
61537;BME280;48695;53.480;-6.300;2023-05-19T05:51:02;102428.84;;;13.83;49.44
61537;BME280;48695;53.480;-6.300;2023-05-19T05:53:28;102427.09;;;13.85;49.35
61537;BME280;48695;53.480;-6.300;2023-05-19T05:55:54;102427.09;;;13.85;49.46
61537;BME280;48695;53.480;-6.300;2023-05-19T05:58:19;102420.97;;;13.86;49.76
61537;BME280;48695;53.480;-6.300;2023-05-19T06:00:45;102434.09;;;13.86;49.39
61537;BME280;48695;53.480;-6.300;2023-05-19T06:03:12;102432.31;;;13.88;49.55
61537;BME280;48695;53.480;-6.300;2023-05-19T06:05:38;102420.91;;;13.89;50.22
61537;BME280;48695;53.480;-6.300;2023-05-19T06:08:03;102427.03;;;13.91;49.80
61537;BME280;48695;53.480;-6.300;2023-05-19T06:10:29;102434.03;;;13.92;50.10
61537;BME280;48695;53.480;-6.300;2023-05-19T06:12:54;102432.28;;;13.94;50.10
61537;BME280;48695;53.480;-6.300;2023-05-19T06:15:20;102435.75;;;13.96;50.16
61537;BME280;48695;53.480;-6.300;2023-05-19T06:17:45;102430.50;;;13.99;49.73
61537;BME280;48695;53.480;-6.300;2023-05-19T06:20:11;102420.84;;;13.99;49.77
61537;BME280;48695;53.480;-6.300;2023-05-19T06:22:36;102404.38;;;13.81;49.84
61537;BME280;48695;53.480;-6.300;2023-05-19T06:25:02;102443.56;;;14.05;50.17
61537;BME280;48695;53.480;-6.300;2023-05-19T06:27:27;102433.00;;;14.08;49.90
61537;BME280;48695;53.480;-6.300;2023-05-19T06:29:53;102422.50;;;14.10;50.13
61537;BME280;48695;53.480;-6.300;2023-05-19T06:32:18;102423.31;;;14.13;49.99
61537;BME280;48695;53.480;-6.300;2023-05-19T06:34:43;102432.06;;;14.15;50.11
61537;BME280;48695;53.480;-6.300;2023-05-19T06:37:08;102422.41;;;14.17;50.36
61537;BME280;48695;53.480;-6.300;2023-05-19T06:39:34;102413.66;;;14.20;50.51
61537;BME280;48695;53.480;-6.300;2023-05-19T06:41:59;102414.47;;;14.23;49.86
61537;BME280;48695;53.480;-6.300;2023-05-19T06:44:24;102420.59;;;14.25;50.29
61537;BME280;48695;53.480;-6.300;2023-05-19T06:46:50;102420.53;;;14.28;50.65
61537;BME280;48695;53.480;-6.300;2023-05-19T06:49:15;102429.28;;;14.31;50.54
61537;BME280;48695;53.480;-6.300;2023-05-19T06:51:40;102426.63;;;14.34;50.12
61537;BME280;48695;53.480;-6.300;2023-05-19T06:54:06;102420.47;;;14.36;50.38
61537;BME280;48695;53.480;-6.300;2023-05-19T06:56:31;102426.56;;;14.40;49.98
61537;BME280;48695;53.480;-6.300;2023-05-19T06:58:56;102436.19;;;14.41;50.75
61537;BME280;48695;53.480;-6.300;2023-05-19T07:01:21;102437.00;;;14.44;50.91
61537;BME280;48695;53.480;-6.300;2023-05-19T07:03:47;102445.78;;;14.48;50.76
61537;BME280;48695;53.480;-6.300;2023-05-19T07:06:12;102443.13;;;14.51;51.14
61537;BME280;48695;53.480;-6.300;2023-05-19T07:08:37;102436.94;;;14.55;51.11
61537;BME280;48695;53.480;-6.300;2023-05-19T07:11:03;102443.88;;;14.59;50.49
61537;BME280;48695;53.480;-6.300;2023-05-19T07:13:28;102447.31;;;14.64;50.61
61537;BME280;48695;53.480;-6.300;2023-05-19T07:15:53;102450.81;;;14.68;50.17
61537;BME280;48695;53.480;-6.300;2023-05-19T07:18:20;102457.81;;;14.70;50.63
61537;BME280;48695;53.480;-6.300;2023-05-19T07:20:45;102469.13;;;14.74;50.56
61537;BME280;48695;53.480;-6.300;2023-05-19T07:23:10;102463.09;;;14.64;50.60
61537;BME280;48695;53.480;-6.300;2023-05-19T07:25:36;102482.22;;;14.78;51.16
61537;BME280;48695;53.480;-6.300;2023-05-19T07:28:01;102481.31;;;14.83;50.92
61537;BME280;48695;53.480;-6.300;2023-05-19T07:30:27;102484.78;;;14.86;51.17
61537;BME280;48695;53.480;-6.300;2023-05-19T07:32:52;102477.72;;;14.90;51.11
61537;BME280;48695;53.480;-6.300;2023-05-19T07:35:18;102486.44;;;14.93;50.79
61537;BME280;48695;53.480;-6.300;2023-05-19T07:37:44;102478.50;;;14.98;51.19
61537;BME280;48695;53.480;-6.300;2023-05-19T07:40:09;102472.31;;;15.02;50.46
61537;BME280;48695;53.480;-6.300;2023-05-19T07:42:34;102475.78;;;15.05;50.97
61537;BME280;48695;53.480;-6.300;2023-05-19T07:45:00;102474.81;;;15.11;50.37
61537;BME280;48695;53.480;-6.300;2023-05-19T07:47:27;102470.38;;;15.15;50.57
61537;BME280;48695;53.480;-6.300;2023-05-19T07:49:52;102473.84;;;15.18;50.91
61537;BME280;48695;53.480;-6.300;2023-05-19T07:52:17;102468.53;;;15.21;50.97
61537;BME280;48695;53.480;-6.300;2023-05-19T07:54:43;102472.84;;;15.25;51.10
61537;BME280;48695;53.480;-6.300;2023-05-19T07:57:08;102471.94;;;15.29;51.37
61537;BME280;48695;53.480;-6.300;2023-05-19T07:59:33;102472.72;;;15.35;51.02
61537;BME280;48695;53.480;-6.300;2023-05-19T08:01:58;102475.28;;;15.41;51.23
61537;BME280;48695;53.480;-6.300;2023-05-19T08:04:24;102465.50;;;15.49;51.47
61537;BME280;48695;53.480;-6.300;2023-05-19T08:06:49;102463.66;;;15.54;51.47
61537;BME280;48695;53.480;-6.300;2023-05-19T08:09:16;102471.47;;;15.62;51.20
61537;BME280;48695;53.480;-6.300;2023-05-19T08:11:42;102478.41;;;15.69;51.49
61537;BME280;48695;53.480;-6.300;2023-05-19T08:14:08;102486.19;;;15.76;51.03
61537;BME280;48695;53.480;-6.300;2023-05-19T08:16:34;102482.56;;;15.83;51.35
61537;BME280;48695;53.480;-6.300;2023-05-19T08:19:00;102486.84;;;15.89;51.39
61537;BME280;48695;53.480;-6.300;2023-05-19T08:21:28;102486.75;;;15.95;51.69
61537;BME280;48695;53.480;-6.300;2023-05-19T08:23:53;102491.03;;;16.01;51.41
61537;BME280;48695;53.480;-6.300;2023-05-19T08:26:18;102442.28;;;15.77;51.43
61537;BME280;48695;53.480;-6.300;2023-05-19T08:28:43;102502.22;;;16.15;51.69
61537;BME280;48695;53.480;-6.300;2023-05-19T08:31:09;102494.22;;;16.21;51.29
61537;BME280;48695;53.480;-6.300;2023-05-19T08:33:34;102505.53;;;16.28;51.78
61537;BME280;48695;53.480;-6.300;2023-05-19T08:36:00;102497.47;;;16.35;51.62
61537;BME280;48695;53.480;-6.300;2023-05-19T08:38:25;102493.91;;;16.40;51.23
61537;BME280;48695;53.480;-6.300;2023-05-19T08:40:50;102501.69;;;16.46;51.20
61537;BME280;48695;53.480;-6.300;2023-05-19T08:43:16;102491.91;;;16.51;51.50
61537;BME280;48695;53.480;-6.300;2023-05-19T08:45:42;102484.78;;;16.56;51.79
61537;BME280;48695;53.480;-6.300;2023-05-19T08:48:07;102482.94;;;16.61;51.61
61537;BME280;48695;53.480;-6.300;2023-05-19T08:50:34;102482.81;;;16.67;51.35
61537;BME280;48695;53.480;-6.300;2023-05-19T08:53:14;102489.75;;;16.74;51.47
61537;BME280;48695;53.480;-6.300;2023-05-19T08:55:52;102482.63;;;16.79;51.58
61537;BME280;48695;53.480;-6.300;2023-05-19T08:58:19;102478.13;;;16.84;51.15
61537;BME280;48695;53.480;-6.300;2023-05-19T09:00:46;102478.88;;;16.90;51.12
61537;BME280;48695;53.480;-6.300;2023-05-19T09:03:11;102479.66;;;16.95;51.23
61537;BME280;48695;53.480;-6.300;2023-05-19T09:05:39;102476.94;;;16.99;51.47
61537;BME280;48695;53.480;-6.300;2023-05-19T09:08:05;102475.03;;;17.06;51.22
61537;BME280;48695;53.480;-6.300;2023-05-19T09:10:30;102476.59;;;17.13;51.63
61537;BME280;48695;53.480;-6.300;2023-05-19T09:12:55;102473.84;;;17.19;51.53
61537;BME280;48695;53.480;-6.300;2023-05-19T09:15:21;102432.72;;;17.09;51.39
61537;BME280;48695;53.480;-6.300;2023-05-19T09:17:49;102457.63;;;17.36;51.33
61537;BME280;48695;53.480;-6.300;2023-05-19T09:20:15;102453.06;;;17.43;50.87
61537;BME280;48695;53.480;-6.300;2023-05-19T09:22:43;102458.22;;;17.49;51.16
61537;BME280;48695;53.480;-6.300;2023-05-19T09:25:18;102463.34;;;17.55;51.35
61537;BME280;48695;53.480;-6.300;2023-05-19T09:27:45;102459.69;;;17.60;50.83
61537;BME280;48695;53.480;-6.300;2023-05-19T09:30:10;102462.13;;;17.68;50.51
61537;BME280;48695;53.480;-6.300;2023-05-19T09:32:36;102463.78;;;17.74;50.88
61537;BME280;48695;53.480;-6.300;2023-05-19T09:35:01;102464.53;;;17.80;51.12
61537;BME280;48695;53.480;-6.300;2023-05-19T09:37:26;102466.09;;;17.87;51.03
61537;BME280;48695;53.480;-6.300;2023-05-19T09:39:52;102462.41;;;17.95;50.59
61537;BME280;48695;53.480;-6.300;2023-05-19T09:42:27;102469.22;;;18.05;50.65
61537;BME280;48695;53.480;-6.300;2023-05-19T09:45:00;102457.50;;;18.13;50.64
61537;BME280;48695;53.480;-6.300;2023-05-19T09:47:26;102468.63;;;18.26;50.42
61537;BME280;48695;53.480;-6.300;2023-05-19T09:49:52;102470.13;;;18.36;50.41
61537;BME280;48695;53.480;-6.300;2023-05-19T09:52:17;102469.88;;;18.46;50.84
61537;BME280;48695;53.480;-6.300;2023-05-19T09:54:43;102473.97;;;18.57;50.77
61537;BME280;48695;53.480;-6.300;2023-05-19T09:57:09;102476.34;;;18.68;50.40
61537;BME280;48695;53.480;-6.300;2023-05-19T09:59:34;102476.94;;;18.78;50.53
61537;BME280;48695;53.480;-6.300;2023-05-19T10:02:00;102481.97;;;18.87;50.51
61537;BME280;48695;53.480;-6.300;2023-05-19T10:04:27;102466.69;;;18.97;50.62
61537;BME280;48695;53.480;-6.300;2023-05-19T10:06:55;102468.16;;;19.07;50.28
61537;BME280;48695;53.480;-6.300;2023-05-19T10:09:24;102470.53;;;19.16;50.62
61537;BME280;48695;53.480;-6.300;2023-05-19T10:11:52;102472.00;;;19.25;50.12
61537;BME280;48695;53.480;-6.300;2023-05-19T10:14:22;102479.63;;;19.35;50.01
61537;BME280;48695;53.480;-6.300;2023-05-19T10:16:51;102463.44;;;19.44;50.05
61537;BME280;48695;53.480;-6.300;2023-05-19T10:19:20;102468.44;;;19.54;50.20
61537;BME280;48695;53.480;-6.300;2023-05-19T10:21:46;102477.06;;;19.62;50.03
61537;BME280;48695;53.480;-6.300;2023-05-19T10:24:12;102483.81;;;19.72;50.01
61537;BME280;48695;53.480;-6.300;2023-05-19T10:26:38;102474.63;;;19.82;50.10
61537;BME280;48695;53.480;-6.300;2023-05-19T10:29:04;102450.81;;;19.81;50.02
61537;BME280;48695;53.480;-6.300;2023-05-19T10:31:29;102463.38;;;20.01;49.64
61537;BME280;48695;53.480;-6.300;2023-05-19T10:34:04;102468.38;;;20.10;49.74
61537;BME280;48695;53.480;-6.300;2023-05-19T10:36:47;102464.50;;;20.20;49.83
61537;BME280;48695;53.480;-6.300;2023-05-19T10:39:18;102464.97;;;20.31;49.55
61537;BME280;48695;53.480;-6.300;2023-05-19T10:41:46;102465.53;;;20.41;49.42
61537;BME280;48695;53.480;-6.300;2023-05-19T10:46:52;102462.28;;;20.58;49.44
61537;BME280;48695;53.480;-6.300;2023-05-19T10:49:20;102473.50;;;20.66;48.94
61537;BME280;48695;53.480;-6.300;2023-05-19T10:51:49;102461.84;;;20.70;49.00
61537;BME280;48695;53.480;-6.300;2023-05-19T10:54:15;102479.34;;;20.76;49.02
61537;BME280;48695;53.480;-6.300;2023-05-19T10:56:42;102472.06;;;20.81;48.90
61537;BME280;48695;53.480;-6.300;2023-05-19T10:59:30;102477.19;;;20.85;48.89
61537;BME280;48695;53.480;-6.300;2023-05-19T11:01:56;102479.69;;;20.90;48.54
61537;BME280;48695;53.480;-6.300;2023-05-19T11:04:24;102477.78;;;20.93;48.22
61537;BME280;48695;53.480;-6.300;2023-05-19T11:07:02;102475.75;;;21.00;48.70
61537;BME280;48695;53.480;-6.300;2023-05-19T11:09:28;102472.00;;;21.06;48.07
61537;BME280;48695;53.480;-6.300;2023-05-19T11:12:00;102476.22;;;21.11;48.33
61537;BME280;48695;53.480;-6.300;2023-05-19T11:14:27;102470.66;;;21.17;48.26
61537;BME280;48695;53.480;-6.300;2023-05-19T11:16:55;102485.38;;;21.26;48.35
61537;BME280;48695;53.480;-6.300;2023-05-19T11:19:27;102449.66;;;21.11;47.96
61537;BME280;48695;53.480;-6.300;2023-05-19T11:21:53;102478.56;;;21.42;48.04
61537;BME280;48695;53.480;-6.300;2023-05-19T11:27:16;102478.97;;;21.54;47.98
61537;BME280;48695;53.480;-6.300;2023-05-19T11:29:42;102483.16;;;21.61;47.92
61537;BME280;48695;53.480;-6.300;2023-05-19T11:32:07;102486.53;;;21.64;47.85
61537;BME280;48695;53.480;-6.300;2023-05-19T11:34:33;102490.88;;;21.67;47.67
61537;BME280;48695;53.480;-6.300;2023-05-19T11:36:59;102481.94;;;21.68;47.60
61537;BME280;48695;53.480;-6.300;2023-05-19T11:39:25;102485.44;;;21.70;47.13
61537;BME280;48695;53.480;-6.300;2023-05-19T11:41:51;102477.56;;;21.67;46.90
61537;BME280;48695;53.480;-6.300;2023-05-19T11:44:19;102483.81;;;21.66;46.80
61537;BME280;48695;53.480;-6.300;2023-05-19T11:46:44;102478.50;;;21.66;47.17
61537;BME280;48695;53.480;-6.300;2023-05-19T11:49:09;102472.31;;;21.65;46.99
61537;BME280;48695;53.480;-6.300;2023-05-19T11:51:35;102475.97;;;21.63;46.78
61537;BME280;48695;53.480;-6.300;2023-05-19T11:54:01;102478.53;;;21.64;47.09
61537;BME280;48695;53.480;-6.300;2023-05-19T11:56:32;102483.81;;;21.66;46.63
61537;BME280;48695;53.480;-6.300;2023-05-19T11:58:57;102476.63;;;21.68;46.92
61537;BME280;48695;53.480;-6.300;2023-05-19T12:01:22;102476.63;;;21.68;46.43
61537;BME280;48695;53.480;-6.300;2023-05-19T12:03:50;102484.59;;;21.68;46.70
61537;BME280;48695;53.480;-6.300;2023-05-19T12:06:16;102482.81;;;21.68;46.75
61537;BME280;48695;53.480;-6.300;2023-05-19T12:08:41;102479.28;;;21.68;46.46
61537;BME280;48695;53.480;-6.300;2023-05-19T12:11:06;102480.22;;;21.67;46.58
61537;BME280;48695;53.480;-6.300;2023-05-19T12:13:32;102440.22;;;21.48;46.24
61537;BME280;48695;53.480;-6.300;2023-05-19T12:16:00;102473.91;;;21.69;46.71
61537;BME280;48695;53.480;-6.300;2023-05-19T12:18:35;102475.50;;;21.73;46.75
61537;BME280;48695;53.480;-6.300;2023-05-19T12:21:01;102467.34;;;21.78;46.62
61537;BME280;48695;53.480;-6.300;2023-05-19T12:23:26;102465.34;;;21.83;46.73
61537;BME280;48695;53.480;-6.300;2023-05-19T12:25:54;102473.91;;;21.91;46.54
61537;BME280;48695;53.480;-6.300;2023-05-19T12:28:20;102469.91;;;22.01;46.80
61537;BME280;48695;53.480;-6.300;2023-05-19T12:30:49;102481.94;;;22.12;46.49
61537;BME280;48695;53.480;-6.300;2023-05-19T12:33:19;102477.00;;;22.23;46.54
61537;BME280;48695;53.480;-6.300;2023-05-19T12:35:45;102484.44;;;22.35;46.23
61537;BME280;48695;53.480;-6.300;2023-05-19T12:38:12;102478.59;;;22.47;46.94
61537;BME280;48695;53.480;-6.300;2023-05-19T12:40:38;102478.56;;;22.68;46.56
61537;BME280;48695;53.480;-6.300;2023-05-19T12:43:03;102487.19;;;22.93;46.53
61537;BME280;48695;53.480;-6.300;2023-05-19T12:45:35;102472.63;;;23.19;46.77
61537;BME280;48695;53.480;-6.300;2023-05-19T12:48:04;102466.91;;;23.46;46.56
61537;BME280;48695;53.480;-6.300;2023-05-19T12:50:30;102472.78;;;23.71;46.64
61537;BME280;48695;53.480;-6.300;2023-05-19T12:52:56;102471.47;;;23.97;46.47
61537;BME280;48695;53.480;-6.300;2023-05-19T12:55:23;102470.22;;;24.22;46.39
61537;BME280;48695;53.480;-6.300;2023-05-19T12:57:49;102475.41;;;24.42;46.02
61537;BME280;48695;53.480;-6.300;2023-05-19T13:00:22;102475.28;;;24.61;45.89